Weather observations for the past three days for
Show Low, Show Low Regional Airport
Metric (Imperial)
Date Time (mst) Wind (kph) Vis. (km) Weather Sky Cond. Temperature (ºC) Relative Humidity Wind Chill (°C) Heat Index (°C) Pressure Precipitation (cm)
Air Dwpt 6 hour altimeter (cm) sea level (mb) 1 hr 3 hr 6 hr
Max. Min.
08 14:35 W 22 G 35 16.09 Fair CLR 27 -7 10% 26 76.48 0.0
08 14:15 N 22 G 37 16.09 A Few Clouds FEW120 26 -7 11% 25 76.45 0.0
08 13:55 NW 24 16.09 Fair CLR 25 -7 11% 25 76.48 0.0
08 13:35 NW 26 G 37 16.09 Fair CLR 26 -7 11% 25 76.5 0.0
08 13:15 W 15 16.09 Fair CLR 25 -7 11% 25 76.53 0.0
08 12:55 N 13 G 33 16.09 Fair CLR 25 -7 11% 25 76.53 0.0
08 12:35 Vrbl 9 G 26 16.09 Fair CLR 24 -8 11% 24 76.53 0.0
08 12:15 NW 15 G 37 16.09 Fair CLR 25 -7 11% 25 76.53 0.0
08 11:55 NE 19 16.09 Fair CLR 24 -7 12% 24 76.56 0.0
08 11:35 NW 20 G 31 16.09 Fair CLR 24 -8 11% 24 76.56 0.0
08 11:15 NW 22 G 31 16.09 Fair CLR 24 -7 12% 24 76.58 0.0
08 10:55 N 19 G 31 16.09 Fair CLR 24 -8 11% 24 76.61 0.0
08 10:35 W 15 16.09 Fair CLR 23 -9 11% 76.61 0.0
08 10:15 NW 19 16.09 Fair CLR 23 -11 9% 76.63 0.0
08 09:55 W 20 16.09 Fair CLR 23 -11 9% 76.63 0.0
08 09:35 NW 11 16.09 Fair CLR 21 -10 12% 76.63 0.0
08 09:15 Vrbl 11 16.09 Fair CLR 21 -10 12% 76.63 0.0
08 08:55 Vrbl 9 16.09 Fair CLR 20 -9 13% 76.63 0.0
08 08:35 SW 9 16.09 Fair CLR 20 -8 14% 76.63 0.0
08 08:15 SW 9 16.09 Fair CLR 19 -10 13% 76.61 0.0
08 07:55 S 11 16.09 Fair CLR 18 -8 16% 76.63 0.0
08 07:35 S 13 16.09 Fair CLR 17 -7 19% 76.61 0.0
08 07:15 S 13 16.09 Fair CLR 16 -7 20% 76.61 0.0
08 06:55 S 11 16.09 Fair CLR 14 -7 23% 76.61 0.0
08 06:35 S 7 16.09 Fair CLR 12 -7 26% 76.61 0.0
08 06:15 S 7 16.09 Fair CLR 9 -8 29% 8 76.58 0.0
08 05:55 Calm 16.09 Fair CLR 7 -9 31% 76.58 0.0
08 05:35 S 9 16.09 Fair CLR 6 -9 34% 4 76.58 0.0
08 05:15 S 9 16.09 Fair CLR 6 -10 31% 4 76.56 0.0
08 04:55 S 9 16.09 Fair CLR 6 -10 31% 4 76.56 0.0
08 04:35 S 9 16.09 Fair CLR 6 -10 31% 4 76.56 0.0
08 04:15 S 7 16.09 Fair CLR 6 -10 31% 5 76.56 0.0
08 03:55 S 11 16.09 Fair CLR 7 -10 29% 5 76.53 0.0
08 03:35 S 11 16.09 Fair CLR 6 -10 31% 4 76.53 0.0
08 03:15 S 13 16.09 Fair CLR 6 -11 29% 4 76.53 0.0
08 02:55 S 7 16.09 Fair CLR 8 -13 21% 7 76.53 0.0
08 02:35 S 9 16.09 Fair CLR 7 -13 23% 5 76.53 0.0
08 02:15 S 9 16.09 Fair CLR 7 -13 23% 5 76.56 0.0
08 01:55 S 11 16.09 Fair CLR 8 -13 21% 6 76.56 0.0
08 01:35 S 15 16.09 Fair CLR 8 -14 20% 6 76.56 0.0
08 01:15 S 13 16.09 Fair CLR 8 -13 21% 6 76.56 0.0
08 00:55 S 17 16.09 Fair CLR 8 -12 23% 6 76.58 0.0
08 00:35 S 9 16.09 Fair CLR 6 -13 24% 4 76.58 0.0
08 00:15 S 7 16.09 Fair CLR 6 -12 26% 5 76.61 0.0
07 23:55 S 9 16.09 Fair CLR 6 -13 24% 4 76.61 0.0
07 23:35 S 9 16.09 Fair CLR 7 -13 23% 5 76.61 0.0
07 23:15 S 9 16.09 Fair CLR 7 -14 21% 5 76.58 0.0
07 22:55 Calm 16.09 Fair CLR 7 -14 21% 76.58 0.0
07 22:35 S 9 16.09 Fair CLR 8 -14 20% 7 76.58 0.0
07 22:15 S 6 16.09 Fair CLR 9 -14 18% 76.58 0.0
07 21:55 Calm 16.09 Fair CLR 9 -15 17% 76.58 0.0
07 21:35 Calm 16.09 Fair CLR 11 -14 16% 76.58 0.0
07 21:15 Calm 16.09 Fair CLR 11 -15 15% 76.61 0.0
07 20:55 E 6 16.09 Fair CLR 12 -15 14% 76.61 0.0
07 20:35 Calm 16.09 Fair CLR 15 -17 9% 76.58 0.0
07 20:15 Calm 16.09 Fair CLR 14 -16 11% 76.56 0.0
07 19:55 Calm 16.09 Fair CLR 15 -17 9% 76.53 0.0
07 19:35 N 9 16.09 Fair CLR 16 -17 9% 76.53 0.0
07 19:15 N 9 16.09 Fair CLR 17 -17 8% 76.5 0.0
07 18:55 N 9 16.09 Fair CLR 18 -18 7% 76.48 0.0
07 18:35 N 13 16.09 Fair CLR 19 -19 6% 76.48 0.0
07 18:15 NW 13 16.09 Fair CLR 20 -20 5% 76.48 0.0
07 17:55 N 20 16.09 Fair CLR 20 -18 6% 76.45 0.0
07 17:35 N 15 G 26 16.09 Fair CLR 21 -19 5% 76.45 0.0
07 17:15 N 17 16.09 Fair CLR 21 -18 6% 76.45 0.0
07 16:55 N 20 16.09 Fair CLR 21 -17 6% 76.45 0.0
07 16:35 NE 11 16.09 Fair CLR 21 -16 7% 76.45 0.0
07 16:15 NW 17 G 28 16.09 Fair CLR 21 -15 8% 76.45 0.0
07 15:55 Vrbl 11 G 22 16.09 Fair CLR 21 -15 8% 76.45 0.0
07 15:35 Calm 16.09 Fair CLR 21 -15 8% 76.48 0.0
07 15:15 N 17 16.09 Fair CLR 21 -15 8% 76.48 0.0
07 14:55 NW 19 16.09 Fair CLR 21 -15 8% 76.48 0.0
07 14:35 N 20 16.09 Fair CLR 21 -14 8% 76.5 0.0
07 14:15 Calm 16.09 Fair CLR 20 -16 7% 76.53 0.0
07 13:15 Calm 16.09 Fair CLR 19 -14 9% 76.58 0.0
07 12:55 NW 15 G 28 16.09 Fair CLR 20 -14 9% 76.61 0.0
07 12:35 Vrbl 9 G 31 16.09 Fair CLR 19 -14 9% 76.63 0.0
07 12:15 N 13 G 28 16.09 Fair CLR 19 -15 9% 76.66 0.0
07 11:55 N 20 G 31 16.09 Fair CLR 19 -12 11% 76.68 0.0
07 11:35 N 19 16.09 Fair CLR 18 -13 11% 76.68 0.0
07 11:15 N 24 G 35 16.09 Fair CLR 18 -13 11% 76.68 0.0
07 10:55 NE 22 16.09 Fair CLR 18 -12 12% 76.71 0.0
07 10:35 NE 17 16.09 Fair CLR 17 -12 13% 76.73 0.0
07 10:15 NE 20 16.09 Fair CLR 17 -12 13% 76.73 0.0
07 09:55 E 15 G 26 16.09 Fair CLR 16 -12 13% 76.73 0.0
07 09:35 NE 19 16.09 Fair CLR 16 -13 12% 76.73 0.0
07 09:15 NE 20 16.09 Fair CLR 15 -12 14% 76.73 0.0
07 08:55 NE 20 16.09 Fair CLR 15 -13 13% 76.76 0.0
07 08:35 NE 19 16.09 Fair CLR 14 -8 21% 76.76 0.0
07 08:15 N 17 16.09 Fair CLR 13 -3 33% 76.76 0.0
07 07:55 NE 19 16.09 Fair CLR 12 -3 35% 76.76 0.0
07 07:35 E 19 16.09 Fair CLR 12 -5 30% 76.78 0.0
07 07:15 NE 9 16.09 Fair CLR 10 -3 40% 9 76.78 0.0
07 06:55 NE 6 16.09 Fair CLR 7 -2 53% 76.78 0.0
07 06:35 Calm 16.09 Fair CLR 4 -2 65% 76.76 0.0
07 06:15 NE 6 16.09 Fair CLR 3 -3 65% 76.76 0.0
07 05:55 E 9 16.09 Fair CLR 2 -4 65% -0 76.73 0.0
07 05:35 E 9 16.09 Fair CLR 1 -3 75% -2 76.73 0.0
07 05:15 E 9 16.09 Fair CLR 1 -3 75% -2 76.73 0.0
07 04:55 N 7 16.09 Fair CLR 1 -3 75% -1 76.73 0.0
07 04:35 E 11 16.09 Fair CLR 3 -3 65% 0 76.71 0.0
07 04:15 SE 7 16.09 Fair CLR 1 -2 81% -1 76.73 0.0
07 03:55 Calm 16.09 Fair CLR 2 -1 81% 76.73 0.0
07 03:35 Calm 16.09 Fair CLR 2 0 87% 76.73 0.0
07 03:15 Calm 16.09 Fair CLR 1 -1 87% 76.76 0.0
07 02:55 Calm 16.09 Fair CLR 3 -2 70% 76.76 0.0
07 02:35 Calm 16.09 Fair CLR 4 -1 70% 76.73 0.0
07 02:15 Calm 16.09 Fair CLR 4 -1 70% 76.73 0.0
07 01:55 Calm 16.09 Fair CLR 3 -2 70% 76.73 0.0
07 01:35 Calm 16.09 Fair CLR 4 -1 70% 76.73 0.0
07 01:15 Calm 16.09 Fair CLR 5 -1 66% 76.76 0.0
07 00:55 Calm 16.09 Fair CLR 5 -1 66% 76.76 0.0
07 00:35 Calm 16.09 Fair CLR 6 -1 61% 76.76 0.0
07 00:15 Calm 16.09 Fair CLR 6 -1 61% 76.73 0.0
06 23:55 Calm 16.09 Fair CLR 7 -1 57% 76.73 0.0
06 23:35 SE 9 16.09 Fair CLR 7 -1 57% 5 76.71 0.0
06 23:15 SE 9 16.09 Fair CLR 8 -1 53% 7 76.68 0.0
06 22:55 E 7 16.09 Fair CLR 8 -1 53% 7 76.68 0.0
06 22:35 Calm 16.09 Fair CLR 8 -1 53% 76.68 0.0
06 22:15 Calm 16.09 Fair CLR 10 -1 47% 76.66 0.0
06 21:55 S 7 16.09 Fair CLR 11 -1 44% 76.63 0.0
06 21:35 S 13 16.09 Fair CLR 11 -1 44% 76.61 0.0
06 21:15 S 15 16.09 Fair CLR 12 0 44% 76.61 0.0
06 20:55 S 13 16.09 Fair CLR 12 -1 41% 76.58 0.0
06 20:35 SW 11 G 20 16.09 Fair CLR 13 0 41% 76.58 0.0
06 20:15 Vrbl 6 16.09 Fair CLR 13 0 41% 76.56 0.0
06 19:55 SW 9 16.09 A Few Clouds FEW095 14 0 39% 76.53 0.0
06 19:35 SW 11 16.09 Mostly Cloudy BKN100 15 0 36% 76.5 0.0
06 19:15 SW 11 16.09 Partly Cloudy SCT100 SCT120 16 0 34% 76.48 0.0
06 18:55 SW 9 16.09 Mostly Cloudy BKN100 BKN120 16 -1 31% 76.48 0.0
06 18:35 SW 9 16.09 Mostly Cloudy BKN110 16 -1 31% 76.48 0.0
06 18:15 SW 11 16.09 A Few Clouds FEW110 17 -1 30% 76.45 0.0
06 17:55 SW 7 16.09 A Few Clouds FEW100 18 -5 21% 76.45 0.0
06 17:35 W 11 G 43 16.09 Partly Cloudy SCT095 18 -6 19% 76.43 0.0
06 17:15 NW 11 G 22 16.09 Mostly Cloudy BKN095 20 -6 17% 76.4 0.0
06 16:55 W 28 G 46 16.09 Mostly Cloudy BKN095 20 -6 17% 76.38 0.0
06 16:35 NW 9 G 24 16.09 Partly Cloudy SCT090 18 -6 19% 76.4 0.0
06 16:15 NW 13 G 24 16.09 Mostly Cloudy BKN090 19 -6 18% 76.4 0.0
06 15:55 SW 15 16.09 Mostly Cloudy FEW060 BKN095 18 -4 22% 76.4 0.0
06 15:35 W 15 G 26 16.09 Mostly Cloudy FEW060 BKN095 20 -3 21% 76.4 0.0
06 15:15 NW 15 G 33 16.09 Partly Cloudy SCT090 18 -6 19% 76.4 0.0
06 14:55 Vrbl 9 G 33 16.09 A Few Clouds FEW090 18 -7 18% 76.4 0.0
06 14:35 NW 13 G 26 16.09 Fair CLR 19 -6 18% 76.4 0.0
06 14:15 NW 19 G 30 16.09 Fair CLR 19 -6 18% 76.43 0.0
06 13:55 W 17 G 30 16.09 Partly Cloudy SCT085 19 -5 19% 76.43 0.0
06 13:35 W 20 16.09 Mostly Cloudy BKN085 BKN120 18 -5 21% 76.43 0.0
06 13:15 W 17 G 31 16.09 Mostly Cloudy FEW046 FEW065 BKN080 18 -4 22% 76.43 0.0
06 12:55 NW 15 G 37 16.09 A Few Clouds FEW080 17 -4 24% 76.43 0.0
06 12:35 Vrbl 9 G 24 16.09 Partly Cloudy SCT075 SCT095 17 -4 24% 76.45 0.0
06 12:15 W 11 G 24 16.09 A Few Clouds FEW075 FEW095 17 -4 24% 76.45 0.0
06 11:55 W 15 16.09 Fair CLR 16 -4 25% 76.45 0.0
06 11:35 NW 17 16.09 A Few Clouds FEW065 16 -3 27% 76.48 0.0
06 11:15 Vrbl 11 16.09 Partly Cloudy SCT065 15 -3 29% 76.48 0.0
06 10:55 Vrbl 7 16.09 Fair CLR 14 -2 33% 76.5 0.0
06 10:35 W 11 16.09 Fair CLR 14 -2 33% 76.5 0.0
06 10:15 Calm 16.09 Fair CLR 13 -2 36% 76.5 0.0
06 09:55 S 9 16.09 Fair CLR 12 -2 38% 76.5 0.0
06 09:35 Vrbl 6 16.09 Fair CLR 12 -2 38% 76.48 0.0
06 09:15 SW 13 16.09 Fair CLR 11 -2 41% 76.48 0.0
06 08:55 SW 7 16.09 Fair CLR 11 -2 41% 76.48 0.0
06 08:35 SW 11 16.09 Fair CLR 10 -2 43% 9 76.48 0.0
06 08:15 S 17 16.09 Fair CLR 10 0 50% 8 76.48 0.0
06 07:55 S 17 16.09 Fair CLR 9 -1 50% 7 76.48 0.0
06 07:35 S 17 16.09 Fair CLR 8 -1 53% 6 76.48 0.0
06 07:15 S 17 16.09 Fair CLR 7 0 61% 4 76.45 0.0
06 06:55 S 15 16.09 Fair CLR 7 0 61% 5 76.45 0.0
06 06:35 S 17 16.09 Fair CLR 6 -1 61% 3 76.43 0.0
06 06:15 S 17 16.09 Fair CLR 4 -1 70% 1 76.43 0.0
06 05:55 S 9 16.09 Fair CLR 3 -1 75% 1 76.43 0.0
06 05:35 S 11 16.09 Fair CLR 3 -1 75% 0 76.4 0.0
06 05:15 S 13 16.09 Fair CLR 3 -1 75% 0 76.4 0.0
06 04:55 S 15 16.09 Fair CLR 3 -1 75% -0 76.38 0.0
06 04:35 S 15 16.09 Fair CLR 3 -1 75% -0 76.4 0.0
06 04:15 S 13 16.09 Fair CLR 3 -1 75% 0 76.38 0.0
06 03:55 S 13 16.09 Fair CLR 4 -1 70% 1 76.35 0.0
06 03:35 S 17 16.09 Fair CLR 3 -1 75% -1 76.35 0.0
06 03:15 S 19 16.09 Fair CLR 3 -1 75% -1 76.35 0.0
06 02:55 S 17 16.09 Fair CLR 3 -1 75% -1 76.35 0.0
06 02:35 S 17 16.09 Fair CLR 4 -1 70% 1 76.33 0.0
06 02:15 S 17 16.09 Fair CLR 4 -1 70% 1 76.33 0.0
06 01:55 S 19 16.09 Fair CLR 4 -1 70% 0 76.33 0.0
06 01:35 S 19 16.09 Fair CLR 3 -1 75% -1 76.33 0.0
06 01:15 S 19 16.09 Fair CLR 3 -1 75% -1 76.33 0.0
06 00:55 S 11 16.09 Fair CLR 3 -1 75% 0 76.35 0.0
06 00:35 S 13 16.09 Fair CLR 4 -1 70% 1 76.33 0.0
06 00:15 S 15 16.09 Fair CLR 4 0 75% 1 76.35 0.0
05 23:55 S 11 16.09 Fair CLR 4 0 75% 2 76.35 0.0
05 23:35 S 13 16.09 Fair CLR 4 0 75% 1 76.33 0.0
05 22:55 S 11 16.09 Fair CLR 5 0 70% 3 76.33 0.0
05 22:35 SW 13 16.09 Fair CLR 5 1 76% 2 76.3 0.0
05 22:15 SW 9 16.09 Fair CLR 5 2 81% 3 76.33 0.0
05 21:55 SW 11 16.09 A Few Clouds FEW065 6 1 71% 4 76.33 0.0
05 21:35 S 9 16.09 Partly Cloudy SCT070 6 1 71% 4 76.33 0.0
05 21:15 SW 6 16.09 Mostly Cloudy BKN070 7 2 71% 76.33 0.0
05 20:55 Calm 16.09 Mostly Cloudy SCT048 SCT065 BKN075 7 2 71% 76.3 0.0
05 20:35 Calm 16.09 Mostly Cloudy BKN048 BKN065 BKN075 7 2 71% 76.28 0.0
05 20:15 Calm 16.09 Mostly Cloudy SCT048 BKN055 7 2 71% 76.23 0.0
05 19:55 S 9 16.09 Partly Cloudy BKN055 SCT065 7 1 66% 5 76.2 0.0
05 19:35 S 11 16.09 Fair CLR 8 1 62% 6 76.17 0.0
05 19:15 S 17 16.09 Partly Cloudy FEW043 SCT049 SCT060 8 1 62% 6 76.15 0.0
05 18:55 S 24 G 43 16.09 Mostly Cloudy SCT044 BKN050 BKN070 9 1 58% 6 76.12 0.0
05 18:35 SW 30 G 41 16.09 A Few Clouds FEW045 FEW075 FEW090 11 0 47% 76.07 0.0
05 18:15 SW 33 16.09 Partly Cloudy and Breezy FEW055 FEW065 SCT075 11 -1 44% 76.05 0.0
05 17:55 SW 39 16.09 Partly Cloudy and Breezy FEW055 SCT070 SCT080 12 -1 41% 76.05 0.0
05 17:35 SW 28 G 41 16.09 Fair CLR 11 -1 44% 76.05 0.0
05 17:15 SW 37 G 46 16.09 A Few Clouds and Breezy FEW050 FEW060 FEW075 11 -1 44% 76.02 0.0
05 16:55 SW 33 G 44 16.09 Partly Cloudy and Breezy FEW050 SCT060 SCT075 13 -1 38% 76.02 0.0
05 16:35 SW 43 16.09 A Few Clouds and Windy FEW045 14 1 41% 76 0.0
05 16:15 SW 35 G 50 16.09 Fair and Breezy CLR 13 2 47% 75.97 0.0
05 15:55 SW 39 G 56 16.09 A Few Clouds and Breezy FEW075 12 1 47% 76 0.0
05 15:35 SW 46 G 57 16.09 Fair and Windy CLR 14 0 39% 75.97 0.0
05 15:15 SW 43 G 56 16.09 Partly Cloudy and Windy FEW044 FEW060 SCT095 14 2 44% 75.97 0.0
05 14:55 SW 43 G 57 12.87 Partly Cloudy and Windy SCT038 SCT080 SCT100 13 6 63% 76 0.0
Date Time (mst) Wind (kph) Vis. (km) Weather Sky Cond. Air Dwpt Max. Min. Relative Humidity Wind Chill (°C) Heat Index (°C) altimeter (cm) sea level (mb) 1 hr 3 hr 6 hr
6 hour
Temperature (ºC) Pressure Precipitation (cm)